Time;durP1;ratioP1;P1;durP2;ratioP2;P2;SDS_P1;SDS_P2;PMS_P1;PMS_P2;Temp;Humidity;BMP_temperature;BMP_pressure;BME280_temperature;BME280_humidity;BME280_pressure;Samples;Min_cycle;Max_cycle;Signal;HPM_P1;HPM_P2
2021/10/17 00:00:35;;;;;;;8.88;5.43;;;9.90;99.90;;;;;;4906817;29;20096;-70
2021/10/17 00:03:01;;;;;;;12.60;5.60;;;10.00;99.90;;;;;;4906478;29;20056;-70
2021/10/17 00:05:30;;;;;;;11.35;5.82;;;10.00;99.90;;;;;;4922991;29;20493;-70
2021/10/17 00:07:56;;;;;;;10.90;5.43;;;9.90;99.90;;;;;;4905428;29;20198;-70
2021/10/17 00:10:29;;;;;;;10.57;5.97;;;10.00;99.90;;;;;;4938071;29;20052;-70
2021/10/17 00:12:57;;;;;;;13.07;5.22;;;9.90;99.90;;;;;;4906452;29;20052;-70
2021/10/17 00:15:24;;;;;;;15.32;5.70;;;9.90;99.90;;;;;;4907060;29;20059;-69
2021/10/17 00:17:50;;;;;;;10.50;5.95;;;9.90;99.90;;;;;;4901837;29;20056;-70
2021/10/17 00:20:19;;;;;;;15.23;6.38;;;9.90;99.90;;;;;;4907092;29;20059;-70
2021/10/17 00:22:46;;;;;;;12.32;5.53;;;9.80;99.90;;;;;;4906551;29;20060;-70
2021/10/17 00:25:13;;;;;;;14.50;5.78;;;9.80;99.90;;;;;;4907307;29;20055;-70
2021/10/17 00:27:41;;;;;;;8.65;5.07;;;9.70;99.90;;;;;;4906229;29;20048;-70
2021/10/17 00:30:08;;;;;;;11.57;5.25;;;9.70;99.90;;;;;;4905891;29;20135;-70
2021/10/17 00:32:34;;;;;;;9.82;5.82;;;9.60;99.90;;;;;;4898417;29;20040;-70
2021/10/17 00:35:01;;;;;;;13.38;6.22;;;9.50;99.90;;;;;;4906929;29;20056;-70
2021/10/17 00:37:30;;;;;;;13.43;5.82;;;9.40;99.90;;;;;;4907237;29;20059;-69
2021/10/17 00:39:56;;;;;;;12.60;5.20;;;9.40;99.90;;;;;;4907611;29;20064;-69
2021/10/17 00:42:22;;;;;;;14.18;5.85;;;9.40;99.90;;;;;;4909323;29;20072;-71
2021/10/17 00:44:59;;;;;;;12.57;5.75;;;9.30;99.90;;;;;;4906050;29;20052;-69
2021/10/17 00:47:25;;;;;;;12.82;5.90;;;9.30;99.90;;;;;;4906122;29;20049;-70
2021/10/17 00:49:51;;;;;;;16.88;6.63;;;9.20;99.90;;;;;;4937583;29;20413;-70
2021/10/17 00:52:18;;;;;;;11.48;5.82;;;9.20;99.90;;;;;;4919148;29;20051;-71
2021/10/17 00:54:44;;;;;;;12.63;6.68;;;9.20;99.90;;;;;;4938553;29;20048;-70
2021/10/17 00:57:12;;;;;;;13.95;6.93;;;9.20;99.90;;;;;;4914910;29;20055;-70
2021/10/17 00:59:38;;;;;;;17.13;6.70;;;9.10;99.90;;;;;;4911150;29;20074;-70
2021/10/17 01:02:04;;;;;;;9.98;5.43;;;9.10;99.90;;;;;;4911305;29;20048;-70
2021/10/17 01:04:32;;;;;;;11.40;6.20;;;9.10;99.90;;;;;;4910297;29;20058;-70
2021/10/17 01:06:57;;;;;;;12.73;5.93;;;9.00;99.90;;;;;;4928889;29;20048;-70
2021/10/17 01:09:23;;;;;;;16.42;6.30;;;9.00;99.90;;;;;;4945257;29;20129;-70
2021/10/17 01:11:49;;;;;;;12.95;6.22;;;8.90;99.90;;;;;;4945655;29;20401;-71
2021/10/17 01:14:19;;;;;;;11.90;6.25;;;9.00;99.90;;;;;;4912803;29;20056;-71
2021/10/17 01:16:46;;;;;;;15.88;7.40;;;9.00;99.90;;;;;;4910939;29;20055;-70
2021/10/17 01:19:12;;;;;;;11.40;6.53;;;9.00;99.90;;;;;;4938471;29;20059;-70
2021/10/17 01:21:39;;;;;;;10.20;7.03;;;9.00;99.90;;;;;;4912340;29;20044;-71
2021/10/17 01:24:07;;;;;;;13.50;6.85;;;9.00;99.90;;;;;;4913610;29;20084;-71
2021/10/17 01:26:33;;;;;;;12.65;6.38;;;9.00;99.90;;;;;;4913501;29;20130;-71
2021/10/17 01:28:59;;;;;;;9.73;6.30;;;9.00;99.90;;;;;;4930386;29;20044;-71
2021/10/17 01:31:41;;;;;;;12.68;6.68;;;9.10;99.90;;;;;;4944126;29;20108;-71
2021/10/17 01:34:08;;;;;;;12.90;6.38;;;9.10;99.90;;;;;;4944035;29;20051;-70
2021/10/17 01:36:38;;;;;;;10.13;5.95;;;9.10;99.90;;;;;;4909920;29;20052;-71
2021/10/17 01:39:04;;;;;;;;;;;9.20;99.90;;;;;;4910816;29;20052;-71
2021/10/17 01:41:30;;;;;;;15.68;6.53;;;9.20;99.90;;;;;;4913325;29;19923;-71
2021/10/17 01:44:04;;;;;;;11.65;6.47;;;9.20;99.90;;;;;;4912520;29;20417;-70
2021/10/17 01:46:31;;;;;;;17.90;7.10;;;9.20;99.90;;;;;;4927895;29;20052;-70
2021/10/17 01:48:56;;;;;;;15.27;6.70;;;9.20;99.90;;;;;;4943945;29;20052;-71
2021/10/17 01:51:22;;;;;;;12.98;6.72;;;9.20;99.90;;;;;;4943187;29;20040;-71
2021/10/17 01:53:49;;;;;;;10.95;6.18;;;9.20;99.90;;;;;;4943953;29;20253;-71
2021/10/17 01:56:14;;;;;;;12.55;6.70;;;9.20;99.90;;;;;;4945535;29;20060;-71
2021/10/17 01:58:40;;;;;;;11.05;6.25;;;9.20;99.90;;;;;;4928644;29;20107;-71
2021/10/17 02:01:07;;;;;;;13.63;6.25;;;9.20;99.90;;;;;;4927349;29;20052;-71
2021/10/17 02:03:32;;;;;;;17.27;6.45;;;9.30;99.90;;;;;;4909597;29;20055;-70
2021/10/17 02:05:59;;;;;;;15.23;6.93;;;9.30;99.90;;;;;;4943506;29;20063;-71
2021/10/17 02:08:24;;;;;;;14.60;6.35;;;9.40;99.90;;;;;;4911432;29;20052;-70
2021/10/17 02:10:50;;;;;;;15.20;7.38;;;9.40;99.90;;;;;;4944495;29;20095;-70
2021/10/17 02:13:16;;;;;;;13.60;6.80;;;9.40;99.90;;;;;;4944515;29;20047;-71
2021/10/17 02:15:41;;;;;;;11.30;6.35;;;9.40;99.90;;;;;;4912413;29;20052;-70
2021/10/17 02:18:07;;;;;;;12.75;6.40;;;9.50;99.90;;;;;;4911522;29;20417;-71
2021/10/17 02:20:34;;;;;;;15.68;6.72;;;9.50;99.90;;;;;;4943577;29;20108;-70
2021/10/17 02:23:03;;;;;;;14.52;7.13;;;9.50;99.90;;;;;;4911604;29;20062;-70
2021/10/17 02:25:30;;;;;;;15.32;7.63;;;9.50;99.90;;;;;;4911363;29;20080;-71
2021/10/17 02:27:56;;;;;;;14.57;7.07;;;9.50;99.90;;;;;;4912315;29;20056;-71
2021/10/17 02:30:22;;;;;;;12.27;7.22;;;9.60;99.90;;;;;;4911611;29;20051;-71
2021/10/17 02:32:48;;;;;;;14.07;7.03;;;9.60;99.90;;;;;;4911519;29;20052;-71
2021/10/17 02:35:14;;;;;;;14.70;6.68;;;9.60;99.90;;;;;;4912416;29;20603;-70
2021/10/17 02:37:40;;;;;;;12.23;7.40;;;9.60;99.90;;;;;;4943062;29;20052;-70
2021/10/17 02:40:07;;;;;;;16.02;7.47;;;9.60;99.90;;;;;;4910999;29;20056;-70
2021/10/17 02:42:33;;;;;;;11.00;6.53;;;9.50;99.90;;;;;;4911355;29;20063;-71
2021/10/17 02:44:59;;;;;;;11.35;6.82;;;9.60;99.90;;;;;;4911487;29;20044;-70
2021/10/17 02:47:25;;;;;;;12.65;7.00;;;9.50;99.90;;;;;;4911768;29;20119;-70
2021/10/17 02:49:51;;;;;;;12.85;7.18;;;9.60;99.90;;;;;;4911547;29;20080;-70
2021/10/17 02:52:16;;;;;;;16.05;6.78;;;9.60;99.90;;;;;;4927062;29;20052;-71
2021/10/17 02:54:42;;;;;;;14.07;6.85;;;9.50;99.90;;;;;;4943336;29;20056;-71
2021/10/17 02:57:08;;;;;;;12.77;6.68;;;9.50;99.90;;;;;;4911624;29;20048;-70
2021/10/17 02:59:34;;;;;;;15.60;7.10;;;9.60;99.90;;;;;;4910395;29;20123;-70
2021/10/17 03:02:00;;;;;;;13.30;6.85;;;9.50;99.90;;;;;;4942439;29;20048;-71
2021/10/17 03:04:25;;;;;;;13.10;7.22;;;9.50;99.90;;;;;;4910739;29;20044;-71
2021/10/17 03:06:51;;;;;;;18.90;7.68;;;9.50;99.90;;;;;;4911800;29;20413;-70
2021/10/17 03:09:17;;;;;;;14.02;7.28;;;9.50;99.90;;;;;;4921344;29;20055;-71
2021/10/17 03:11:43;;;;;;;15.20;7.43;;;9.60;99.90;;;;;;4943620;29;20051;-71
2021/10/17 03:14:08;;;;;;;14.60;7.97;;;9.50;99.90;;;;;;4942700;29;20044;-70
2021/10/17 03:16:34;;;;;;;13.20;7.80;;;9.50;99.90;;;;;;4910685;29;20048;-70
2021/10/17 03:19:00;;;;;;;15.73;8.23;;;9.50;99.90;;;;;;4925882;29;20076;-70
2021/10/17 03:21:26;;;;;;;15.00;8.45;;;9.40;99.90;;;;;;4911733;29;20032;-71
2021/10/17 03:23:52;;;;;;;18.30;9.52;;;9.40;99.90;;;;;;4943054;29;20055;-71
2021/10/17 03:26:18;;;;;;;15.88;7.82;;;9.50;99.90;;;;;;4911187;29;20051;-70
2021/10/17 03:28:44;;;;;;;17.63;8.05;;;9.40;99.90;;;;;;4928601;29;20056;-70
2021/10/17 03:31:10;;;;;;;14.77;9.05;;;9.40;99.90;;;;;;4928621;29;20051;-70
2021/10/17 03:33:35;;;;;;;15.15;8.30;;;9.30;99.90;;;;;;4943243;29;20504;-70
2021/10/17 03:36:02;;;;;;;16.63;8.57;;;9.30;99.90;;;;;;4928470;29;20048;-70
2021/10/17 03:38:28;;;;;;;13.65;7.53;;;9.30;99.90;;;;;;4910375;29;20051;-70
2021/10/17 03:40:53;;;;;;;17.65;8.43;;;9.30;99.90;;;;;;4926100;29;20048;-70
2021/10/17 03:43:19;;;;;;;16.42;7.85;;;9.30;99.90;;;;;;4927727;29;20051;-71
2021/10/17 03:45:45;;;;;;;13.40;7.70;;;9.30;99.90;;;;;;4911465;29;20111;-71
2021/10/17 03:48:11;;;;;;;15.98;7.65;;;9.30;99.90;;;;;;4909440;29;20047;-70
2021/10/17 03:50:36;;;;;;;20.40;7.70;;;9.30;99.90;;;;;;4941405;29;20108;-71
2021/10/17 03:53:02;;;;;;;17.38;8.55;;;9.30;99.90;;;;;;4941718;29;20124;-71
2021/10/17 03:55:28;;;;;;;12.65;7.88;;;9.30;99.90;;;;;;4943519;29;20043;-71
2021/10/17 03:57:54;;;;;;;13.32;8.13;;;9.30;99.90;;;;;;4893613;29;20056;-70
2021/10/17 04:00:21;;;;;;;16.08;8.20;;;9.30;99.90;;;;;;4942464;29;20055;-71
2021/10/17 04:02:47;;;;;;;20.42;8.27;;;9.30;99.90;;;;;;4911480;29;20056;-70
2021/10/17 04:05:13;;;;;;;16.13;8.23;;;9.30;99.90;;;;;;4910818;29;20052;-70
2021/10/17 04:07:39;;;;;;;11.88;7.43;;;9.40;99.90;;;;;;4942262;29;20103;-71
2021/10/17 04:10:06;;;;;;;12.77;7.97;;;9.40;99.90;;;;;;4925295;29;20167;-71
2021/10/17 04:12:31;;;;;;;13.77;7.30;;;9.30;99.90;;;;;;4927286;29;20040;-70
2021/10/17 04:14:57;;;;;;;14.88;7.97;;;9.40;99.90;;;;;;4942164;29;20052;-71
2021/10/17 04:17:26;;;;;;;15.95;8.75;;;9.40;99.90;;;;;;4910823;29;20497;-71
2021/10/17 04:19:52;;;;;;;14.25;7.65;;;9.40;99.90;;;;;;4910635;29;20062;-70
2021/10/17 04:22:19;;;;;;;13.38;8.10;;;9.40;99.90;;;;;;4909968;29;20054;-70
2021/10/17 04:24:45;;;;;;;12.93;7.18;;;9.40;99.90;;;;;;4910030;29;20048;-70
2021/10/17 04:27:11;;;;;;;16.63;7.75;;;9.40;99.90;;;;;;4913850;29;20052;-71
2021/10/17 04:29:37;;;;;;;15.20;8.43;;;9.40;99.90;;;;;;4944859;29;20112;-70
2021/10/17 04:32:04;;;;;;;16.52;7.78;;;9.40;99.90;;;;;;4913317;29;20078;-70
2021/10/17 04:34:30;;;;;;;16.52;7.75;;;9.40;99.90;;;;;;4930356;29;20055;-70
2021/10/17 04:36:56;;;;;;;12.68;7.28;;;9.50;99.90;;;;;;4930500;29;20052;-70
2021/10/17 04:39:23;;;;;;;11.95;7.30;;;9.50;99.90;;;;;;4912839;29;20067;-70
2021/10/17 04:41:49;;;;;;;13.30;7.65;;;9.50;99.90;;;;;;4914031;29;20052;-70
2021/10/17 04:44:14;;;;;;;16.75;7.85;;;9.50;99.90;;;;;;4914443;29;20062;-70
2021/10/17 04:46:40;;;;;;;12.80;7.03;;;9.60;99.90;;;;;;4930283;29;20092;-70
2021/10/17 04:49:06;;;;;;;13.85;7.30;;;9.60;99.90;;;;;;4944812;29;20056;-71
2021/10/17 04:51:32;;;;;;;14.48;7.45;;;9.70;99.90;;;;;;4928160;29;20047;-71
2021/10/17 04:53:57;;;;;;;12.15;7.13;;;9.60;99.90;;;;;;4910001;29;20094;-70
2021/10/17 04:56:23;;;;;;;13.63;7.07;;;9.60;99.90;;;;;;4915411;29;20144;-70
2021/10/17 04:58:49;;;;;;;12.52;7.38;;;9.60;99.90;;;;;;4912718;29;20059;-70
2021/10/17 05:01:15;;;;;;;13.90;7.80;;;9.70;99.90;;;;;;4913207;29;20056;-70
2021/10/17 05:03:41;;;;;;;11.50;7.65;;;9.60;99.90;;;;;;4912306;29;20068;-70
2021/10/17 05:06:07;;;;;;;14.65;7.75;;;9.60;99.90;;;;;;4945441;29;20056;-71
2021/10/17 05:08:33;;;;;;;15.35;7.35;;;9.60;99.90;;;;;;4913941;29;20072;-70
2021/10/17 05:10:58;;;;;;;16.30;8.23;;;9.50;99.90;;;;;;4913320;29;20044;-70
2021/10/17 05:13:24;;;;;;;15.10;8.85;;;9.50;99.90;;;;;;4945644;29;20048;-70
2021/10/17 05:15:50;;;;;;;14.35;7.60;;;9.50;99.90;;;;;;4945746;29;20058;-71
2021/10/17 05:18:16;;;;;;;17.20;9.25;;;9.50;99.90;;;;;;4931190;29;20115;-71
2021/10/17 05:20:41;;;;;;;14.55;8.52;;;9.40;99.90;;;;;;4912849;29;20048;-70
2021/10/17 05:23:10;;;;;;;12.07;8.00;;;9.40;99.90;;;;;;4944303;29;20076;-71
2021/10/17 05:25:36;;;;;;;15.50;8.52;;;9.40;99.90;;;;;;4912741;29;20048;-71
2021/10/17 05:28:02;;;;;;;14.43;8.45;;;9.50;99.90;;;;;;4945191;29;20052;-70
2021/10/17 05:30:28;;;;;;;13.07;8.05;;;9.40;99.90;;;;;;4913154;29;20135;-70
2021/10/17 05:32:53;;;;;;;18.90;8.82;;;9.40;99.90;;;;;;4913512;29;20047;-70
2021/10/17 05:35:19;;;;;;;16.77;8.85;;;9.50;99.90;;;;;;4944591;29;20084;-70
2021/10/17 05:37:45;;;;;;;17.35;8.57;;;9.50;99.90;;;;;;4911900;29;20409;-70
2021/10/17 05:40:11;;;;;;;18.20;8.70;;;9.40;99.90;;;;;;4929541;29;20083;-71
2021/10/17 05:42:37;;;;;;;13.52;7.43;;;9.50;99.90;;;;;;4944755;29;20040;-71
2021/10/17 05:45:03;;;;;;;13.82;8.35;;;9.50;99.90;;;;;;4912323;29;20091;-71
2021/10/17 05:47:29;;;;;;;13.23;7.43;;;9.50;99.90;;;;;;4912416;29;20475;-70
2021/10/17 05:49:55;;;;;;;12.07;7.25;;;9.50;99.90;;;;;;4911389;29;20115;-70
2021/10/17 05:52:20;;;;;;;13.65;7.53;;;9.50;99.90;;;;;;4944197;29;20052;-70
2021/10/17 05:54:46;;;;;;;13.18;8.27;;;9.50;99.90;;;;;;4943581;29;20062;-70
2021/10/17 05:57:12;;;;;;;12.98;7.45;;;9.50;99.90;;;;;;4945231;29;20052;-70
2021/10/17 05:59:37;;;;;;;16.23;7.38;;;9.50;99.90;;;;;;4907587;29;20131;-71
2021/10/17 06:02:03;;;;;;;20.27;8.40;;;9.40;99.90;;;;;;4943204;29;20051;-70
2021/10/17 06:04:29;;;;;;;13.95;7.68;;;9.50;99.90;;;;;;4944005;29;20052;-71
2021/10/17 06:06:54;;;;;;;11.82;7.47;;;9.40;99.90;;;;;;4943113;29;20084;-71
2021/10/17 06:09:20;;;;;;;12.43;7.45;;;9.50;99.90;;;;;;4911681;29;20051;-70
2021/10/17 06:11:46;;;;;;;12.65;7.78;;;9.40;99.90;;;;;;4911321;29;20128;-71
2021/10/17 06:14:12;;;;;;;13.95;7.47;;;9.40;99.90;;;;;;4910146;29;20052;-70
2021/10/17 06:16:38;;;;;;;12.95;7.45;;;9.50;99.90;;;;;;4928620;29;20043;-71
2021/10/17 06:19:03;;;;;;;12.50;7.47;;;9.50;99.90;;;;;;4943862;29;20055;-70
2021/10/17 06:21:29;;;;;;;16.15;7.75;;;9.50;99.90;;;;;;4927642;29;20052;-71
2021/10/17 06:23:55;;;;;;;13.43;7.43;;;9.50;99.90;;;;;;4911527;29;20045;-70
2021/10/17 06:26:21;;;;;;;12.20;7.97;;;9.50;99.90;;;;;;4927556;29;20052;-70
2021/10/17 06:28:47;;;;;;;11.52;7.22;;;9.40;99.90;;;;;;4942950;29;20051;-71
2021/10/17 06:31:12;;;;;;;17.40;8.43;;;9.40;99.90;;;;;;4942309;29;20044;-70
2021/10/17 06:33:38;;;;;;;14.27;7.28;;;9.50;99.90;;;;;;4928293;29;20055;-70
2021/10/17 06:36:04;;;;;;;14.80;7.57;;;9.50;99.90;;;;;;4911162;29;20043;-70
2021/10/17 06:38:30;;;;;;;14.65;7.65;;;9.50;99.90;;;;;;4943753;29;20048;-70
2021/10/17 06:40:55;;;;;;;14.00;8.02;;;9.50;99.90;;;;;;4911362;29;20732;-70
2021/10/17 06:43:21;;;;;;;13.20;8.73;;;9.50;99.90;;;;;;4927476;29;20059;-70
2021/10/17 06:45:47;;;;;;;13.23;8.02;;;9.50;99.90;;;;;;4926624;29;20070;-70
2021/10/17 06:48:12;;;;;;;12.30;7.43;;;9.50;99.90;;;;;;4910305;29;20047;-70
2021/10/17 06:50:38;;;;;;;18.52;9.27;;;9.50;99.90;;;;;;4941907;29;20086;-71
2021/10/17 06:53:04;;;;;;;13.98;8.20;;;9.50;99.90;;;;;;4910649;29;20146;-70
2021/10/17 06:55:30;;;;;;;15.40;7.97;;;9.50;99.90;;;;;;4942989;29;20052;-70
2021/10/17 06:57:55;;;;;;;14.75;8.68;;;9.50;99.90;;;;;;4926756;29;20129;-70
2021/10/17 07:00:21;;;;;;;13.90;7.82;;;9.50;99.90;;;;;;4942532;29;20139;-71
2021/10/17 07:02:47;;;;;;;14.52;8.45;;;9.60;99.90;;;;;;4911206;29;20048;-71
2021/10/17 07:05:12;;;;;;;13.68;7.22;;;9.70;99.90;;;;;;4941770;29;20044;-70
2021/10/17 07:07:38;;;;;;;18.20;7.80;;;9.70;99.90;;;;;;4927089;29;20055;-70
2021/10/17 07:10:04;;;;;;;19.65;8.52;;;9.70;99.90;;;;;;4927469;29;20485;-70
2021/10/17 07:12:30;;;;;;;16.65;7.85;;;9.70;99.90;;;;;;4927708;29;20397;-70
2021/10/17 07:14:56;;;;;;;14.90;9.57;;;9.80;99.90;;;;;;4910744;29;20068;-70
2021/10/17 07:17:22;;;;;;;17.45;7.80;;;9.80;99.90;;;;;;4942547;29;20116;-70
2021/10/17 07:19:48;;;;;;;14.45;7.82;;;9.90;99.90;;;;;;4911145;29;20044;-71
2021/10/17 07:22:14;;;;;;;15.70;7.45;;;9.90;99.90;;;;;;4925395;29;20044;-67
2021/10/17 07:24:40;;;;;;;14.40;7.60;;;10.00;99.90;;;;;;4944576;29;20528;-67
2021/10/17 07:27:06;;;;;;;11.52;7.07;;;9.90;99.90;;;;;;4895243;29;20053;-66
2021/10/17 07:29:31;;;;;;;13.27;7.90;;;10.00;99.90;;;;;;4914220;29;20056;-67
2021/10/17 07:31:57;;;;;;;12.05;7.57;;;10.00;99.90;;;;;;4914318;29;20073;-66
2021/10/17 07:34:23;;;;;;;12.73;7.57;;;10.00;99.90;;;;;;4927440;29;20083;-67
2021/10/17 07:36:49;;;;;;;11.45;7.78;;;10.00;99.90;;;;;;4927531;29;20063;-67
2021/10/17 07:39:14;;;;;;;13.48;7.68;;;10.00;99.90;;;;;;4927530;29;20048;-67
2021/10/17 07:41:46;;;;;;;17.77;7.85;;;10.00;99.90;;;;;;4941988;29;20059;-66
2021/10/17 07:44:12;;;;;;;19.30;7.95;;;10.00;99.90;;;;;;4910403;29;20067;-67
2021/10/17 07:46:37;;;;;;;16.00;8.82;;;9.90;99.90;;;;;;4917127;29;20054;-67
2021/10/17 07:49:04;;;;;;;14.43;7.85;;;9.90;99.90;;;;;;4896934;29;20076;-67
2021/10/17 07:51:30;;;;;;;12.75;7.45;;;9.90;99.90;;;;;;4919552;29;20068;-67
2021/10/17 07:53:56;;;;;;;13.50;8.13;;;10.00;99.90;;;;;;4900982;29;20064;-67
2021/10/17 07:56:22;;;;;;;19.42;8.77;;;10.00;99.90;;;;;;4932784;29;20052;-67
2021/10/17 07:58:50;;;;;;;14.90;8.07;;;10.00;99.90;;;;;;4899882;29;20036;-66
2021/10/17 08:01:16;;;;;;;14.68;8.70;;;10.00;99.90;;;;;;4900696;29;20067;-67
2021/10/17 08:03:42;;;;;;;15.80;8.13;;;10.10;99.90;;;;;;4932873;29;20060;-66
2021/10/17 08:06:08;;;;;;;15.75;9.02;;;10.10;99.90;;;;;;4904151;29;20044;-67
2021/10/17 08:08:33;;;;;;;13.23;8.00;;;10.10;99.90;;;;;;4902968;29;20051;-67
2021/10/17 08:10:59;;;;;;;16.20;9.18;;;10.20;99.90;;;;;;4903857;29;20086;-66
2021/10/17 08:13:25;;;;;;;16.20;9.02;;;10.20;99.90;;;;;;4901630;29;20041;-67
2021/10/17 08:15:51;;;;;;;18.17;8.63;;;10.30;99.90;;;;;;4893922;29;20049;-68
2021/10/17 08:18:17;;;;;;;12.20;8.43;;;10.20;99.90;;;;;;4907847;29;20112;-67
2021/10/17 08:20:43;;;;;;;15.52;8.82;;;10.30;99.90;;;;;;4909953;29;20052;-66
2021/10/17 08:23:09;;;;;;;13.10;7.57;;;10.30;99.90;;;;;;4910894;29;20052;-67
2021/10/17 08:25:38;;;;;;;15.10;8.02;;;10.30;99.90;;;;;;4911819;29;20056;-66
2021/10/17 08:28:03;;;;;;;18.15;8.95;;;10.40;99.90;;;;;;4911287;29;20052;-67
2021/10/17 08:30:29;;;;;;;14.27;8.27;;;10.30;99.90;;;;;;4910955;29;20053;-66
2021/10/17 08:32:55;;;;;;;14.80;8.50;;;10.40;99.90;;;;;;4911462;29;20060;-67
2021/10/17 08:35:21;;;;;;;16.70;8.65;;;10.40;99.90;;;;;;4907832;29;20056;-67
2021/10/17 08:37:47;;;;;;;17.45;9.05;;;10.40;99.90;;;;;;4912762;29;20048;-67
2021/10/17 08:40:13;;;;;;;16.08;8.82;;;10.40;99.90;;;;;;4863622;29;20147;-68
2021/10/17 08:42:39;;;;;;;13.52;8.45;;;10.40;99.90;;;;;;4906492;29;20056;-69
2021/10/17 08:45:06;;;;;;;11.52;8.38;;;10.40;99.90;;;;;;4906767;29;20063;-67
2021/10/17 08:47:33;;;;;;;16.48;8.13;;;10.40;99.90;;;;;;4911679;29;20116;-66
2021/10/17 08:50:00;;;;;;;14.90;8.43;;;10.50;99.90;;;;;;4904499;29;20103;-66
2021/10/17 08:52:25;;;;;;;16.65;9.18;;;10.50;99.90;;;;;;4924314;29;20148;-66
2021/10/17 08:54:51;;;;;;;14.15;8.40;;;10.60;99.90;;;;;;4935315;29;20561;-66
2021/10/17 08:57:17;;;;;;;16.40;8.38;;;10.60;99.90;;;;;;4905602;29;20051;-69
2021/10/17 08:59:47;;;;;;;14.75;8.32;;;10.60;99.90;;;;;;4902088;29;20052;-69
2021/10/17 09:02:14;;;;;;;20.63;8.65;;;10.70;99.90;;;;;;4926831;29;20082;-68
2021/10/17 09:04:40;;;;;;;13.70;7.88;;;10.80;99.90;;;;;;4896363;29;20060;-67
2021/10/17 09:07:20;;;;;;;17.35;8.65;;;10.90;99.90;;;;;;4910963;29;20049;-63
2021/10/17 09:10:06;;;;;;;13.50;8.40;;;10.90;99.90;;;;;;4895596;29;20045;-62
2021/10/17 09:12:33;;;;;;;16.27;8.63;;;10.90;99.90;;;;;;4908742;29;20311;-62
2021/10/17 09:15:30;;;;;;;14.73;8.00;;;11.00;99.90;;;;;;4896439;29;20045;-61
2021/10/17 09:18:15;;;;;;;17.20;8.98;;;11.10;99.90;;;;;;4890538;29;20090;-63
2021/10/17 09:20:47;;;;;;;17.13;9.40;;;11.10;99.90;;;;;;4893128;29;20165;-61
2021/10/17 09:23:15;;;;;;;15.65;8.77;;;11.10;99.90;;;;;;4906661;29;20455;-61
2021/10/17 09:25:41;;;;;;;13.98;7.57;;;11.20;99.90;;;;;;4899072;29;20083;-61
2021/10/17 09:28:25;;;;;;;14.98;8.25;;;11.20;99.90;;;;;;4909596;29;20041;-61
2021/10/17 09:31:02;;;;;;;15.10;7.82;;;11.20;99.90;;;;;;4921436;29;20056;-61
2021/10/17 09:33:28;;;;;;;16.17;8.57;;;11.20;99.90;;;;;;4905933;29;20045;-61
2021/10/17 09:35:54;;;;;;;16.58;8.82;;;11.30;99.90;;;;;;4899247;29;20048;-60
2021/10/17 09:38:24;;;;;;;16.58;9.60;;;11.30;99.90;;;;;;4918569;29;20045;-60
2021/10/17 09:40:50;;;;;;;14.65;8.55;;;11.30;99.90;;;;;;4913296;29;20096;-61
2021/10/17 09:43:23;;;;;;;13.23;8.63;;;11.30;99.90;;;;;;4903088;29;20044;-61
2021/10/17 09:45:50;;;;;;;14.05;9.05;;;11.30;99.90;;;;;;4894437;29;20510;-61
2021/10/17 09:48:29;;;;;;;15.95;8.60;;;11.40;99.90;;;;;;4905250;29;20055;-61
2021/10/17 09:51:06;;;;;;;19.85;9.60;;;11.40;99.90;;;;;;4885851;29;20529;-61
2021/10/17 09:53:51;;;;;;;13.48;7.97;;;11.50;99.90;;;;;;4900153;29;20080;-62
2021/10/17 09:56:37;;;;;;;13.13;8.25;;;11.50;99.90;;;;;;4906389;29;20115;-62
2021/10/17 09:59:07;;;;;;;15.27;8.57;;;11.60;99.90;;;;;;4900948;29;20045;-62
2021/10/17 10:01:34;;;;;;;20.23;8.90;;;11.60;99.90;;;;;;4917385;29;20092;-62
2021/10/17 10:04:03;;;;;;;18.08;9.05;;;11.70;99.90;;;;;;4931433;29;20052;-62
2021/10/17 10:06:29;;;;;;;15.00;8.43;;;11.70;99.90;;;;;;4904067;29;20111;-62
2021/10/17 10:09:01;;;;;;;15.32;7.90;;;11.80;99.90;;;;;;4902247;29;20582;-62
2021/10/17 10:11:28;;;;;;;13.55;8.07;;;11.80;99.90;;;;;;4906192;29;20087;-62
2021/10/17 10:14:05;;;;;;;17.92;8.63;;;11.80;99.90;;;;;;4905364;29;20379;-61
2021/10/17 10:16:32;;;;;;;13.60;7.70;;;11.80;99.90;;;;;;4886427;29;20048;-62
2021/10/17 10:19:03;;;;;;;14.43;7.93;;;11.80;99.90;;;;;;4895184;29;20084;-62
2021/10/17 10:21:29;;;;;;;16.48;8.20;;;11.80;99.90;;;;;;4893327;29;20040;-62
2021/10/17 10:24:01;;;;;;;14.48;8.23;;;11.80;99.90;;;;;;4894446;29;20057;-62
2021/10/17 10:26:30;;;;;;;18.02;8.30;;;11.70;99.90;;;;;;4909819;29;20055;-62
2021/10/17 10:28:57;;;;;;;14.57;7.93;;;11.80;99.90;;;;;;4892860;29;20175;-62
2021/10/17 10:31:42;;;;;;;13.60;8.18;;;11.70;99.90;;;;;;4901140;29;20051;-62
2021/10/17 10:34:12;;;;;;;14.52;7.90;;;11.80;99.90;;;;;;4907860;29;20056;-62
2021/10/17 10:36:45;;;;;;;14.80;7.55;;;11.70;99.90;;;;;;4890532;29;20123;-63
2021/10/17 10:39:13;;;;;;;13.05;7.65;;;11.70;99.90;;;;;;4910489;29;20088;-62
2021/10/17 10:41:51;;;;;;;14.32;8.18;;;11.70;99.90;;;;;;4864704;29;20175;-63
2021/10/17 10:44:20;;;;;;;13.90;7.70;;;11.70;99.90;;;;;;4900460;29;20524;-62
2021/10/17 10:46:46;;;;;;;14.75;8.13;;;11.70;99.90;;;;;;4898697;29;20579;-61
2021/10/17 10:49:48;;;;;;;13.63;7.57;;;11.70;99.90;;;;;;4894305;29;20124;-62
2021/10/17 10:52:28;;;;;;;13.63;7.55;;;11.70;99.90;;;;;;4900621;29;20482;-61
2021/10/17 10:54:56;;;;;;;12.65;7.30;;;11.70;99.90;;;;;;4894350;29;20095;-61
2021/10/17 10:57:24;;;;;;;13.10;7.90;;;11.70;99.90;;;;;;4899938;29;20123;-63
2021/10/17 11:00:08;;;;;;;15.85;8.10;;;11.70;99.90;;;;;;4890362;29;20676;-61
2021/10/17 11:02:34;;;;;;;14.38;7.93;;;11.80;99.90;;;;;;4896478;29;20048;-61
2021/10/17 11:05:16;;;;;;;14.63;8.52;;;11.80;99.90;;;;;;4896089;29;20053;-61
2021/10/17 11:07:47;;;;;;;14.57;8.52;;;11.80;99.90;;;;;;4904975;29;20086;-62
2021/10/17 11:10:21;;;;;;;16.52;8.23;;;11.90;99.90;;;;;;4890882;29;20119;-62
2021/10/17 11:12:48;;;;;;;11.48;7.80;;;11.90;99.90;;;;;;4913118;29;20059;-64
2021/10/17 11:15:16;;;;;;;13.80;8.18;;;11.90;99.90;;;;;;4889352;29;20140;-67
2021/10/17 11:17:55;;;;;;;16.80;8.27;;;11.90;99.90;;;;;;4916984;29;20063;-64
2021/10/17 11:20:23;;;;;;;14.02;8.32;;;11.90;99.90;;;;;;4892991;29;20071;-63
2021/10/17 11:22:50;;;;;;;12.82;7.63;;;12.00;99.90;;;;;;4903482;29;20059;-62
2021/10/17 11:25:19;;;;;;;13.75;7.60;;;12.00;99.90;;;;;;4896356;29;20085;-63
2021/10/17 11:27:47;;;;;;;16.90;8.02;;;12.10;99.90;;;;;;4909336;29;20048;-63
2021/10/17 11:30:24;;;;;;;12.75;7.45;;;12.10;99.90;;;;;;4898259;29;20036;-63
2021/10/17 11:32:51;;;;;;;14.52;7.32;;;12.20;99.90;;;;;;4921779;29;20067;-63
2021/10/17 11:35:24;;;;;;;14.35;8.13;;;12.20;99.90;;;;;;4897514;29;20067;-63
2021/10/17 11:37:51;;;;;;;14.57;7.35;;;12.30;99.90;;;;;;4911425;29;20056;-63
2021/10/17 11:40:17;;;;;;;11.23;7.32;;;12.30;99.90;;;;;;4888049;29;20053;-63
2021/10/17 11:42:47;;;;;;;11.68;6.82;;;12.40;99.90;;;;;;4911480;29;20052;-63
2021/10/17 11:45:25;;;;;;;;;;;12.40;99.90;;;;;;4883884;29;20059;-61
2021/10/17 11:47:52;;;;;;;13.75;7.28;;;12.40;99.90;;;;;;4916913;29;19923;-64
2021/10/17 11:50:25;;;;;;;14.70;7.20;;;12.40;99.90;;;;;;4899527;29;20055;-64
2021/10/17 11:52:55;;;;;;;13.77;6.95;;;12.40;99.90;;;;;;4920635;29;20127;-62
2021/10/17 11:55:54;;;;;;;15.93;7.32;;;12.40;99.90;;;;;;4894795;29;20052;-63
2021/10/17 11:58:29;;;;;;;10.27;6.40;;;12.40;99.90;;;;;;4875346;29;20477;-61
2021/10/17 12:01:15;;;;;;;13.32;6.75;;;12.50;99.90;;;;;;4890824;29;20585;-62
2021/10/17 12:03:50;;;;;;;15.10;6.75;;;12.50;99.90;;;;;;4920337;29;20087;-62
2021/10/17 12:06:20;;;;;;;10.60;5.93;;;12.60;99.90;;;;;;4893592;29;20115;-62
2021/10/17 12:08:57;;;;;;;11.25;6.38;;;12.60;99.90;;;;;;4910526;29;20052;-62
2021/10/17 12:11:24;;;;;;;11.27;6.20;;;12.70;99.90;;;;;;4921184;29;20092;-61
2021/10/17 12:13:52;;;;;;;9.75;6.03;;;12.70;99.90;;;;;;4904398;29;20049;-62
2021/10/17 12:16:21;;;;;;;11.88;7.35;;;12.70;99.90;;;;;;4891708;29;20040;-62
2021/10/17 12:18:53;;;;;;;9.20;5.80;;;12.70;99.90;;;;;;4908218;29;20056;-61
2021/10/17 12:21:25;;;;;;;11.50;5.93;;;12.70;99.90;;;;;;4893078;29;20477;-62
2021/10/17 12:23:52;;;;;;;11.10;5.10;;;12.70;99.90;;;;;;4912392;29;20056;-63
2021/10/17 12:26:29;;;;;;;13.15;6.05;;;12.80;99.90;;;;;;4889728;29;20049;-62
2021/10/17 12:29:15;;;;;;;12.18;5.97;;;12.80;99.90;;;;;;4920728;29;20097;-62
2021/10/17 12:31:42;;;;;;;9.63;5.75;;;12.80;99.90;;;;;;4896995;29;20620;-61
2021/10/17 12:34:09;;;;;;;10.40;5.53;;;12.80;99.90;;;;;;4909466;29;20051;-62
2021/10/17 12:36:36;;;;;;;13.07;6.22;;;12.80;99.90;;;;;;4892473;29;20137;-63
2021/10/17 12:39:08;;;;;;;9.88;5.18;;;12.80;99.90;;;;;;4896488;29;20049;-62
2021/10/17 12:41:34;;;;;;;10.30;5.53;;;12.80;99.90;;;;;;4876918;29;20051;-63
2021/10/17 12:44:02;;;;;;;12.25;5.57;;;12.80;99.90;;;;;;4899742;29;20056;-63
2021/10/17 12:46:30;;;;;;;12.95;5.50;;;12.90;99.90;;;;;;4882584;29;20603;-62